Archival Weather

Abadan

Abadan, Iran (OIAA)

Report from: Tuesday, July 19, 2022 1:00 AM UTC
Current time: Tuesday, June 18, 2024 12:41 PM UTC

Current weather – Weather history – Daily summaries
Weather forecast

Temperature34.0°C (93.2°F)
Heat index32.3°C (90.1°F)
Dew point10.0°C (50.0°F)
Winds 4 kts (2.1 m/s, 4.6 mph) West-Northwest (300°)
Clouds Sky clear
Altimeter29.41 in.Hg (996 mB)
Relative humidity23 %
Density altitude2,915 ft. (889 m)
Remarks Ceiling and visibility OK
Flight conditions Visual Meteorological Conditions
Raw dataOIAA 190100Z 30004KT CAVOK 34/10 Q0996
An error has occurred. This application may no longer respond until reloaded. Reload 🗙